Terminal Aerodrome Forecast
Issued by NWS

Home | Current Version | Previous Version | Text Only | Print | Product List | Glossary On
Versions: 1 2 3 4 5 6 7 8 9 10 11 12 13 14
673
FTUS43 KICT 280520
TAFCNU
TAF
KCNU 280520Z 2806/2906 04006KT P6SM VCSH BKN070
     FM281100 01005KT P6SM BKN025
     FM281500 03006KT P6SM BKN030
     FM281700 04010KT P6SM SCT040
     FM290100 04006KT P6SM FEW200=

USA.gov is the U.S. government's official web portal to all federal, state and local government web resources and services.